sensor_id;sensor_type;location;lat;lon;timestamp;P1;durP1;ratioP1;P2;durP2;ratioP2
67074;SDS011;53990;50.334;18.640;2023-09-30T00:01:47;4.40;;;4.00;;
67074;SDS011;53990;50.334;18.640;2023-09-30T00:04:14;4.10;;;3.70;;
67074;SDS011;53990;50.334;18.640;2023-09-30T00:06:41;4.30;;;3.90;;
67074;SDS011;53990;50.334;18.640;2023-09-30T00:09:09;4.00;;;3.60;;
67074;SDS011;53990;50.334;18.640;2023-09-30T00:11:36;3.70;;;3.40;;
67074;SDS011;53990;50.334;18.640;2023-09-30T00:14:03;4.70;;;3.70;;
67074;SDS011;53990;50.334;18.640;2023-09-30T00:16:31;3.60;;;3.30;;
67074;SDS011;53990;50.334;18.640;2023-09-30T00:18:58;3.40;;;3.10;;
67074;SDS011;53990;50.334;18.640;2023-09-30T00:21:25;3.80;;;3.30;;
67074;SDS011;53990;50.334;18.640;2023-09-30T00:23:52;3.90;;;3.60;;
67074;SDS011;53990;50.334;18.640;2023-09-30T00:26:19;4.80;;;3.80;;
67074;SDS011;53990;50.334;18.640;2023-09-30T00:28:47;3.60;;;3.30;;
67074;SDS011;53990;50.334;18.640;2023-09-30T00:31:14;3.60;;;3.30;;
67074;SDS011;53990;50.334;18.640;2023-09-30T00:33:41;3.70;;;3.40;;
67074;SDS011;53990;50.334;18.640;2023-09-30T00:36:09;4.80;;;3.60;;
67074;SDS011;53990;50.334;18.640;2023-09-30T00:38:37;3.50;;;3.20;;
67074;SDS011;53990;50.334;18.640;2023-09-30T00:41:03;3.40;;;3.10;;
67074;SDS011;53990;50.334;18.640;2023-09-30T00:43:31;3.90;;;3.40;;
67074;SDS011;53990;50.334;18.640;2023-09-30T00:46:12;3.70;;;3.40;;
67074;SDS011;53990;50.334;18.640;2023-09-30T00:48:41;3.90;;;3.20;;
67074;SDS011;53990;50.334;18.640;2023-09-30T00:51:09;3.70;;;3.40;;
67074;SDS011;53990;50.334;18.640;2023-09-30T00:53:36;4.20;;;3.30;;
67074;SDS011;53990;50.334;18.640;2023-09-30T00:56:03;3.60;;;3.30;;
67074;SDS011;53990;50.334;18.640;2023-09-30T00:58:30;3.10;;;2.80;;
67074;SDS011;53990;50.334;18.640;2023-09-30T01:00:58;4.10;;;3.50;;
67074;SDS011;53990;50.334;18.640;2023-09-30T01:03:26;3.70;;;3.40;;
67074;SDS011;53990;50.334;18.640;2023-09-30T01:05:53;3.70;;;3.10;;
67074;SDS011;53990;50.334;18.640;2023-09-30T01:08:20;3.70;;;3.10;;
67074;SDS011;53990;50.334;18.640;2023-09-30T01:10:48;3.30;;;3.00;;
67074;SDS011;53990;50.334;18.640;2023-09-30T01:13:15;3.50;;;3.00;;
67074;SDS011;53990;50.334;18.640;2023-09-30T01:15:42;3.20;;;2.40;;
67074;SDS011;53990;50.334;18.640;2023-09-30T01:18:09;3.30;;;2.90;;
67074;SDS011;53990;50.334;18.640;2023-09-30T01:20:36;3.30;;;3.00;;
67074;SDS011;53990;50.334;18.640;2023-09-30T01:23:03;4.50;;;3.20;;
67074;SDS011;53990;50.334;18.640;2023-09-30T01:25:31;4.20;;;3.20;;
67074;SDS011;53990;50.334;18.640;2023-09-30T01:28:00;3.40;;;3.10;;
67074;SDS011;53990;50.334;18.640;2023-09-30T01:30:34;3.40;;;2.90;;
67074;SDS011;53990;50.334;18.640;2023-09-30T01:33:01;2.70;;;2.50;;
67074;SDS011;53990;50.334;18.640;2023-09-30T01:35:28;3.50;;;2.90;;
67074;SDS011;53990;50.334;18.640;2023-09-30T01:37:55;4.00;;;2.70;;
67074;SDS011;53990;50.334;18.640;2023-09-30T01:40:22;3.30;;;3.00;;
67074;SDS011;53990;50.334;18.640;2023-09-30T01:42:49;3.50;;;3.10;;
67074;SDS011;53990;50.334;18.640;2023-09-30T01:45:16;3.10;;;2.80;;
67074;SDS011;53990;50.334;18.640;2023-09-30T01:47:43;3.10;;;2.80;;
67074;SDS011;53990;50.334;18.640;2023-09-30T01:50:10;2.90;;;2.60;;
67074;SDS011;53990;50.334;18.640;2023-09-30T01:52:37;3.30;;;2.80;;
67074;SDS011;53990;50.334;18.640;2023-09-30T01:55:04;3.20;;;2.90;;
67074;SDS011;53990;50.334;18.640;2023-09-30T01:57:31;2.60;;;2.40;;
67074;SDS011;53990;50.334;18.640;2023-09-30T01:59:58;3.70;;;3.00;;
67074;SDS011;53990;50.334;18.640;2023-09-30T02:02:25;3.40;;;3.10;;
67074;SDS011;53990;50.334;18.640;2023-09-30T02:04:53;3.20;;;2.70;;
67074;SDS011;53990;50.334;18.640;2023-09-30T02:07:20;3.40;;;2.70;;
67074;SDS011;53990;50.334;18.640;2023-09-30T02:09:47;3.30;;;2.30;;
67074;SDS011;53990;50.334;18.640;2023-09-30T02:12:15;3.40;;;2.70;;
67074;SDS011;53990;50.334;18.640;2023-09-30T02:14:42;3.10;;;2.80;;
67074;SDS011;53990;50.334;18.640;2023-09-30T02:17:09;2.60;;;2.40;;
67074;SDS011;53990;50.334;18.640;2023-09-30T02:19:36;3.70;;;2.30;;
67074;SDS011;53990;50.334;18.640;2023-09-30T02:22:03;2.60;;;2.40;;
67074;SDS011;53990;50.334;18.640;2023-09-30T02:24:31;2.60;;;2.40;;
67074;SDS011;53990;50.334;18.640;2023-09-30T02:26:58;2.80;;;2.60;;
67074;SDS011;53990;50.334;18.640;2023-09-30T02:29:25;3.40;;;2.60;;
67074;SDS011;53990;50.334;18.640;2023-09-30T02:31:54;3.20;;;2.60;;
67074;SDS011;53990;50.334;18.640;2023-09-30T02:34:22;3.40;;;2.30;;
67074;SDS011;53990;50.334;18.640;2023-09-30T02:36:49;3.50;;;2.70;;
67074;SDS011;53990;50.334;18.640;2023-09-30T02:39:15;2.40;;;2.20;;
67074;SDS011;53990;50.334;18.640;2023-09-30T02:41:43;2.90;;;2.70;;
67074;SDS011;53990;50.334;18.640;2023-09-30T02:44:10;3.20;;;2.50;;
67074;SDS011;53990;50.334;18.640;2023-09-30T02:46:37;3.40;;;3.10;;
67074;SDS011;53990;50.334;18.640;2023-09-30T02:49:04;2.70;;;2.50;;
67074;SDS011;53990;50.334;18.640;2023-09-30T02:51:32;2.50;;;2.30;;
67074;SDS011;53990;50.334;18.640;2023-09-30T02:53:59;2.80;;;2.60;;
67074;SDS011;53990;50.334;18.640;2023-09-30T02:56:26;2.60;;;2.40;;
67074;SDS011;53990;50.334;18.640;2023-09-30T02:58:55;2.40;;;2.20;;
67074;SDS011;53990;50.334;18.640;2023-09-30T03:01:24;2.50;;;2.30;;
67074;SDS011;53990;50.334;18.640;2023-09-30T03:03:51;2.80;;;2.60;;
67074;SDS011;53990;50.334;18.640;2023-09-30T03:06:18;3.10;;;2.80;;
67074;SDS011;53990;50.334;18.640;2023-09-30T03:08:45;4.30;;;3.00;;
67074;SDS011;53990;50.334;18.640;2023-09-30T03:11:13;3.20;;;2.90;;
67074;SDS011;53990;50.334;18.640;2023-09-30T03:13:40;3.10;;;2.20;;
67074;SDS011;53990;50.334;18.640;2023-09-30T03:16:09;2.80;;;2.50;;
67074;SDS011;53990;50.334;18.640;2023-09-30T03:18:36;3.10;;;2.70;;
67074;SDS011;53990;50.334;18.640;2023-09-30T03:21:13;3.20;;;2.70;;
67074;SDS011;53990;50.334;18.640;2023-09-30T03:23:41;2.80;;;2.60;;
67074;SDS011;53990;50.334;18.640;2023-09-30T03:26:08;2.90;;;2.60;;
67074;SDS011;53990;50.334;18.640;2023-09-30T03:28:37;2.70;;;2.50;;
67074;SDS011;53990;50.334;18.640;2023-09-30T03:31:05;3.00;;;2.40;;
67074;SDS011;53990;50.334;18.640;2023-09-30T03:33:33;3.00;;;2.70;;
67074;SDS011;53990;50.334;18.640;2023-09-30T03:36:00;3.20;;;2.90;;
67074;SDS011;53990;50.334;18.640;2023-09-30T03:38:27;2.70;;;2.50;;
67074;SDS011;53990;50.334;18.640;2023-09-30T03:40:54;5.30;;;2.90;;
67074;SDS011;53990;50.334;18.640;2023-09-30T03:43:22;3.80;;;3.40;;
67074;SDS011;53990;50.334;18.640;2023-09-30T03:45:49;3.40;;;3.00;;
67074;SDS011;53990;50.334;18.640;2023-09-30T03:48:16;3.50;;;3.20;;
67074;SDS011;53990;50.334;18.640;2023-09-30T03:50:45;3.10;;;2.80;;
67074;SDS011;53990;50.334;18.640;2023-09-30T03:53:12;2.80;;;2.60;;
67074;SDS011;53990;50.334;18.640;2023-09-30T03:55:39;2.80;;;2.60;;
67074;SDS011;53990;50.334;18.640;2023-09-30T03:58:07;3.50;;;2.80;;
67074;SDS011;53990;50.334;18.640;2023-09-30T04:00:35;3.00;;;2.70;;
67074;SDS011;53990;50.334;18.640;2023-09-30T04:03:02;3.00;;;2.70;;
67074;SDS011;53990;50.334;18.640;2023-09-30T04:05:30;3.60;;;3.00;;
67074;SDS011;53990;50.334;18.640;2023-09-30T04:07:58;3.00;;;2.70;;
67074;SDS011;53990;50.334;18.640;2023-09-30T04:10:25;2.60;;;2.40;;
67074;SDS011;53990;50.334;18.640;2023-09-30T04:12:53;3.00;;;2.70;;
67074;SDS011;53990;50.334;18.640;2023-09-30T04:15:21;3.20;;;2.90;;
67074;SDS011;53990;50.334;18.640;2023-09-30T04:17:48;3.10;;;2.70;;
67074;SDS011;53990;50.334;18.640;2023-09-30T04:20:15;3.10;;;2.70;;
67074;SDS011;53990;50.334;18.640;2023-09-30T04:22:45;3.00;;;2.70;;
67074;SDS011;53990;50.334;18.640;2023-09-30T04:25:15;4.10;;;2.90;;
67074;SDS011;53990;50.334;18.640;2023-09-30T04:27:43;2.70;;;2.50;;
67074;SDS011;53990;50.334;18.640;2023-09-30T04:30:12;3.50;;;3.10;;
67074;SDS011;53990;50.334;18.640;2023-09-30T04:32:42;2.90;;;2.60;;
67074;SDS011;53990;50.334;18.640;2023-09-30T04:35:09;3.80;;;2.70;;
67074;SDS011;53990;50.334;18.640;2023-09-30T04:37:37;3.20;;;2.90;;
67074;SDS011;53990;50.334;18.640;2023-09-30T04:40:06;3.30;;;3.00;;
67074;SDS011;53990;50.334;18.640;2023-09-30T04:42:34;3.30;;;3.00;;
67074;SDS011;53990;50.334;18.640;2023-09-30T04:45:05;2.90;;;2.60;;
67074;SDS011;53990;50.334;18.640;2023-09-30T04:47:36;2.80;;;2.50;;
67074;SDS011;53990;50.334;18.640;2023-09-30T04:50:06;4.20;;;2.90;;
67074;SDS011;53990;50.334;18.640;2023-09-30T04:52:35;2.90;;;2.70;;
67074;SDS011;53990;50.334;18.640;2023-09-30T04:55:02;3.00;;;2.70;;
67074;SDS011;53990;50.334;18.640;2023-09-30T04:57:32;3.00;;;2.70;;
67074;SDS011;53990;50.334;18.640;2023-09-30T04:59:59;3.10;;;2.80;;
67074;SDS011;53990;50.334;18.640;2023-09-30T05:02:27;3.30;;;3.00;;
67074;SDS011;53990;50.334;18.640;2023-09-30T05:04:54;2.80;;;2.60;;
67074;SDS011;53990;50.334;18.640;2023-09-30T05:07:21;3.30;;;3.00;;
67074;SDS011;53990;50.334;18.640;2023-09-30T05:09:48;2.80;;;2.50;;
67074;SDS011;53990;50.334;18.640;2023-09-30T05:12:16;2.80;;;2.60;;
67074;SDS011;53990;50.334;18.640;2023-09-30T05:14:42;3.10;;;2.90;;
67074;SDS011;53990;50.334;18.640;2023-09-30T05:17:10;3.10;;;2.80;;
67074;SDS011;53990;50.334;18.640;2023-09-30T05:19:39;3.30;;;3.00;;
67074;SDS011;53990;50.334;18.640;2023-09-30T05:22:06;3.20;;;2.90;;
67074;SDS011;53990;50.334;18.640;2023-09-30T05:24:33;2.90;;;2.70;;
67074;SDS011;53990;50.334;18.640;2023-09-30T05:27:01;3.20;;;2.90;;
67074;SDS011;53990;50.334;18.640;2023-09-30T05:29:29;3.30;;;3.00;;
67074;SDS011;53990;50.334;18.640;2023-09-30T05:31:56;3.00;;;2.70;;
67074;SDS011;53990;50.334;18.640;2023-09-30T05:34:23;3.10;;;2.80;;
67074;SDS011;53990;50.334;18.640;2023-09-30T05:36:51;3.30;;;3.00;;
67074;SDS011;53990;50.334;18.640;2023-09-30T05:39:18;3.10;;;2.80;;
67074;SDS011;53990;50.334;18.640;2023-09-30T05:41:47;3.40;;;3.10;;
67074;SDS011;53990;50.334;18.640;2023-09-30T05:44:14;3.20;;;2.90;;
67074;SDS011;53990;50.334;18.640;2023-09-30T05:46:41;3.10;;;2.90;;
67074;SDS011;53990;50.334;18.640;2023-09-30T05:49:10;3.50;;;3.10;;
67074;SDS011;53990;50.334;18.640;2023-09-30T05:51:41;3.10;;;2.80;;
67074;SDS011;53990;50.334;18.640;2023-09-30T05:54:08;2.90;;;2.70;;
67074;SDS011;53990;50.334;18.640;2023-09-30T05:56:36;3.20;;;2.90;;
67074;SDS011;53990;50.334;18.640;2023-09-30T05:59:10;3.50;;;3.20;;
67074;SDS011;53990;50.334;18.640;2023-09-30T06:01:37;3.80;;;3.50;;
67074;SDS011;53990;50.334;18.640;2023-09-30T06:04:06;2.80;;;2.60;;
67074;SDS011;53990;50.334;18.640;2023-09-30T06:06:33;2.80;;;2.60;;
67074;SDS011;53990;50.334;18.640;2023-09-30T06:09:00;3.10;;;2.80;;
67074;SDS011;53990;50.334;18.640;2023-09-30T06:11:28;4.80;;;2.80;;
67074;SDS011;53990;50.334;18.640;2023-09-30T06:13:55;3.90;;;3.10;;
67074;SDS011;53990;50.334;18.640;2023-09-30T06:16:26;3.50;;;3.00;;
67074;SDS011;53990;50.334;18.640;2023-09-30T06:18:54;3.30;;;3.00;;
67074;SDS011;53990;50.334;18.640;2023-09-30T06:21:21;2.90;;;2.60;;
67074;SDS011;53990;50.334;18.640;2023-09-30T06:23:48;2.90;;;2.70;;
67074;SDS011;53990;50.334;18.640;2023-09-30T06:26:15;3.30;;;3.00;;
67074;SDS011;53990;50.334;18.640;2023-09-30T06:28:44;3.60;;;2.90;;
67074;SDS011;53990;50.334;18.640;2023-09-30T06:31:11;3.10;;;2.80;;
67074;SDS011;53990;50.334;18.640;2023-09-30T06:33:38;3.10;;;2.80;;
67074;SDS011;53990;50.334;18.640;2023-09-30T06:36:11;3.50;;;3.00;;
67074;SDS011;53990;50.334;18.640;2023-09-30T06:38:41;3.20;;;2.90;;
67074;SDS011;53990;50.334;18.640;2023-09-30T06:41:16;3.30;;;2.90;;
67074;SDS011;53990;50.334;18.640;2023-09-30T06:43:44;3.30;;;3.00;;
67074;SDS011;53990;50.334;18.640;2023-09-30T06:46:11;3.00;;;2.70;;
67074;SDS011;53990;50.334;18.640;2023-09-30T06:48:39;3.40;;;3.10;;
67074;SDS011;53990;50.334;18.640;2023-09-30T06:51:07;3.40;;;2.90;;
67074;SDS011;53990;50.334;18.640;2023-09-30T06:53:35;3.60;;;2.90;;
67074;SDS011;53990;50.334;18.640;2023-09-30T06:56:05;3.00;;;2.80;;
67074;SDS011;53990;50.334;18.640;2023-09-30T06:58:32;3.10;;;2.90;;
67074;SDS011;53990;50.334;18.640;2023-09-30T07:01:00;3.10;;;2.80;;
67074;SDS011;53990;50.334;18.640;2023-09-30T07:03:30;3.00;;;2.70;;
67074;SDS011;53990;50.334;18.640;2023-09-30T07:05:59;2.80;;;2.60;;
67074;SDS011;53990;50.334;18.640;2023-09-30T07:08:27;3.40;;;3.10;;
67074;SDS011;53990;50.334;18.640;2023-09-30T07:10:56;3.00;;;2.70;;
67074;SDS011;53990;50.334;18.640;2023-09-30T07:13:23;2.80;;;2.50;;
67074;SDS011;53990;50.334;18.640;2023-09-30T07:15:51;4.20;;;2.80;;
67074;SDS011;53990;50.334;18.640;2023-09-30T07:18:18;3.10;;;2.80;;
67074;SDS011;53990;50.334;18.640;2023-09-30T07:20:45;3.40;;;2.80;;
67074;SDS011;53990;50.334;18.640;2023-09-30T07:23:12;3.10;;;2.90;;
67074;SDS011;53990;50.334;18.640;2023-09-30T07:25:40;3.30;;;3.00;;
67074;SDS011;53990;50.334;18.640;2023-09-30T07:28:07;3.50;;;3.20;;
67074;SDS011;53990;50.334;18.640;2023-09-30T07:30:38;3.40;;;3.10;;
67074;SDS011;53990;50.334;18.640;2023-09-30T07:33:06;4.40;;;2.90;;
67074;SDS011;53990;50.334;18.640;2023-09-30T07:35:37;3.50;;;3.20;;
67074;SDS011;53990;50.334;18.640;2023-09-30T07:38:09;3.60;;;3.20;;
67074;SDS011;53990;50.334;18.640;2023-09-30T07:40:36;3.50;;;3.10;;
67074;SDS011;53990;50.334;18.640;2023-09-30T07:43:03;3.40;;;3.10;;
67074;SDS011;53990;50.334;18.640;2023-09-30T07:45:30;3.50;;;3.20;;
67074;SDS011;53990;50.334;18.640;2023-09-30T07:47:57;4.70;;;3.20;;
67074;SDS011;53990;50.334;18.640;2023-09-30T07:50:32;3.60;;;3.20;;
67074;SDS011;53990;50.334;18.640;2023-09-30T07:53:00;3.50;;;3.20;;
67074;SDS011;53990;50.334;18.640;2023-09-30T07:55:27;3.90;;;3.60;;
67074;SDS011;53990;50.334;18.640;2023-09-30T07:57:53;4.00;;;3.60;;
67074;SDS011;53990;50.334;18.640;2023-09-30T08:00:20;3.90;;;3.50;;
67074;SDS011;53990;50.334;18.640;2023-09-30T08:02:47;4.10;;;3.70;;
67074;SDS011;53990;50.334;18.640;2023-09-30T08:05:15;3.30;;;3.00;;
67074;SDS011;53990;50.334;18.640;2023-09-30T08:07:41;4.00;;;3.60;;
67074;SDS011;53990;50.334;18.640;2023-09-30T08:10:08;4.90;;;4.40;;
67074;SDS011;53990;50.334;18.640;2023-09-30T08:12:40;4.20;;;3.80;;
67074;SDS011;53990;50.334;18.640;2023-09-30T08:15:08;4.10;;;3.70;;
67074;SDS011;53990;50.334;18.640;2023-09-30T08:17:38;4.10;;;3.70;;
67074;SDS011;53990;50.334;18.640;2023-09-30T08:20:05;3.90;;;3.50;;
67074;SDS011;53990;50.334;18.640;2023-09-30T08:22:34;4.10;;;3.70;;
67074;SDS011;53990;50.334;18.640;2023-09-30T08:28:12;3.40;;;3.10;;
67074;SDS011;53990;50.334;18.640;2023-09-30T08:30:39;4.20;;;3.80;;
67074;SDS011;53990;50.334;18.640;2023-09-30T08:33:06;3.90;;;3.50;;
67074;SDS011;53990;50.334;18.640;2023-09-30T08:35:35;4.20;;;3.80;;
67074;SDS011;53990;50.334;18.640;2023-09-30T08:38:04;4.20;;;3.80;;
67074;SDS011;53990;50.334;18.640;2023-09-30T08:40:31;4.10;;;3.80;;
67074;SDS011;53990;50.334;18.640;2023-09-30T08:43:03;4.50;;;4.10;;
67074;SDS011;53990;50.334;18.640;2023-09-30T08:45:33;4.60;;;4.20;;
67074;SDS011;53990;50.334;18.640;2023-09-30T08:48:00;4.60;;;4.20;;
67074;SDS011;53990;50.334;18.640;2023-09-30T08:50:33;4.80;;;4.40;;
67074;SDS011;53990;50.334;18.640;2023-09-30T08:53:02;4.90;;;4.50;;
67074;SDS011;53990;50.334;18.640;2023-09-30T08:55:33;4.20;;;3.80;;
67074;SDS011;53990;50.334;18.640;2023-09-30T08:58:02;4.60;;;4.20;;
67074;SDS011;53990;50.334;18.640;2023-09-30T09:00:30;4.00;;;3.70;;
67074;SDS011;53990;50.334;18.640;2023-09-30T09:02:57;4.70;;;4.30;;
67074;SDS011;53990;50.334;18.640;2023-09-30T09:05:24;4.50;;;4.20;;
67074;SDS011;53990;50.334;18.640;2023-09-30T09:07:51;4.60;;;4.20;;
67074;SDS011;53990;50.334;18.640;2023-09-30T09:10:18;4.80;;;4.40;;
67074;SDS011;53990;50.334;18.640;2023-09-30T09:12:55;4.70;;;4.40;;
67074;SDS011;53990;50.334;18.640;2023-09-30T09:15:28;4.50;;;4.10;;
67074;SDS011;53990;50.334;18.640;2023-09-30T09:17:55;4.50;;;4.10;;
67074;SDS011;53990;50.334;18.640;2023-09-30T09:20:24;4.10;;;3.80;;
67074;SDS011;53990;50.334;18.640;2023-09-30T09:22:53;4.40;;;4.00;;
67074;SDS011;53990;50.334;18.640;2023-09-30T09:25:25;4.60;;;4.20;;
67074;SDS011;53990;50.334;18.640;2023-09-30T09:27:53;4.70;;;4.30;;
67074;SDS011;53990;50.334;18.640;2023-09-30T09:30:24;5.10;;;4.60;;
67074;SDS011;53990;50.334;18.640;2023-09-30T09:33:00;4.30;;;3.90;;
67074;SDS011;53990;50.334;18.640;2023-09-30T09:35:28;4.30;;;3.90;;
67074;SDS011;53990;50.334;18.640;2023-09-30T09:38:14;3.80;;;3.40;;
67074;SDS011;53990;50.334;18.640;2023-09-30T09:41:51;4.20;;;3.80;;
67074;SDS011;53990;50.334;18.640;2023-09-30T09:44:24;3.70;;;3.40;;
67074;SDS011;53990;50.334;18.640;2023-09-30T09:46:54;4.20;;;3.80;;
67074;SDS011;53990;50.334;18.640;2023-09-30T09:49:21;3.70;;;3.40;;
67074;SDS011;53990;50.334;18.640;2023-09-30T09:51:49;3.50;;;3.20;;
67074;SDS011;53990;50.334;18.640;2023-09-30T09:54:16;3.50;;;3.20;;
67074;SDS011;53990;50.334;18.640;2023-09-30T09:56:45;3.90;;;3.50;;
67074;SDS011;53990;50.334;18.640;2023-09-30T09:59:13;2.60;;;2.40;;
67074;SDS011;53990;50.334;18.640;2023-09-30T10:01:41;2.80;;;2.50;;
67074;SDS011;53990;50.334;18.640;2023-09-30T10:04:11;2.30;;;2.10;;
67074;SDS011;53990;50.334;18.640;2023-09-30T10:06:38;2.30;;;2.10;;
67074;SDS011;53990;50.334;18.640;2023-09-30T10:09:10;2.50;;;2.20;;
67074;SDS011;53990;50.334;18.640;2023-09-30T10:11:38;3.80;;;2.40;;
67074;SDS011;53990;50.334;18.640;2023-09-30T10:14:06;3.20;;;2.80;;
67074;SDS011;53990;50.334;18.640;2023-09-30T10:16:46;3.30;;;3.00;;
67074;SDS011;53990;50.334;18.640;2023-09-30T10:19:19;2.80;;;2.50;;
67074;SDS011;53990;50.334;18.640;2023-09-30T10:24:48;2.70;;;2.30;;
67074;SDS011;53990;50.334;18.640;2023-09-30T10:35:18;3.20;;;2.50;;
67074;SDS011;53990;50.334;18.640;2023-09-30T10:37:46;2.40;;;2.20;;
67074;SDS011;53990;50.334;18.640;2023-09-30T10:40:30;2.80;;;2.30;;
67074;SDS011;53990;50.334;18.640;2023-09-30T10:42:58;3.10;;;2.60;;
67074;SDS011;53990;50.334;18.640;2023-09-30T10:45:45;3.00;;;2.40;;
67074;SDS011;53990;50.334;18.640;2023-09-30T10:51:11;3.90;;;2.80;;
67074;SDS011;53990;50.334;18.640;2023-09-30T10:53:44;3.40;;;2.30;;
67074;SDS011;53990;50.334;18.640;2023-09-30T10:56:12;3.30;;;2.20;;
67074;SDS011;53990;50.334;18.640;2023-09-30T11:01:14;3.30;;;2.10;;
67074;SDS011;53990;50.334;18.640;2023-09-30T11:03:42;2.30;;;1.90;;
67074;SDS011;53990;50.334;18.640;2023-09-30T11:06:16;3.60;;;2.30;;
67074;SDS011;53990;50.334;18.640;2023-09-30T11:08:58;2.90;;;2.10;;
67074;SDS011;53990;50.334;18.640;2023-09-30T11:11:43;3.20;;;2.10;;
67074;SDS011;53990;50.334;18.640;2023-09-30T11:14:26;3.20;;;2.40;;
67074;SDS011;53990;50.334;18.640;2023-09-30T11:17:04;2.80;;;2.10;;
67074;SDS011;53990;50.334;18.640;2023-09-30T11:19:35;3.30;;;2.30;;
67074;SDS011;53990;50.334;18.640;2023-09-30T11:22:02;3.70;;;2.70;;
67074;SDS011;53990;50.334;18.640;2023-09-30T11:24:30;3.60;;;2.30;;
67074;SDS011;53990;50.334;18.640;2023-09-30T11:26:59;3.70;;;2.80;;
67074;SDS011;53990;50.334;18.640;2023-09-30T11:29:26;3.20;;;2.50;;
67074;SDS011;53990;50.334;18.640;2023-09-30T11:31:54;3.40;;;3.00;;
67074;SDS011;53990;50.334;18.640;2023-09-30T11:34:34;4.10;;;2.60;;
67074;SDS011;53990;50.334;18.640;2023-09-30T11:37:03;3.60;;;3.00;;
67074;SDS011;53990;50.334;18.640;2023-09-30T11:39:30;3.50;;;3.00;;
67074;SDS011;53990;50.334;18.640;2023-09-30T11:41:58;3.90;;;3.10;;
67074;SDS011;53990;50.334;18.640;2023-09-30T11:44:27;3.50;;;3.00;;
67074;SDS011;53990;50.334;18.640;2023-09-30T11:47:01;3.20;;;2.90;;
67074;SDS011;53990;50.334;18.640;2023-09-30T11:49:39;3.80;;;3.10;;
67074;SDS011;53990;50.334;18.640;2023-09-30T11:52:08;3.50;;;3.20;;
67074;SDS011;53990;50.334;18.640;2023-09-30T11:54:39;3.30;;;3.00;;
67074;SDS011;53990;50.334;18.640;2023-09-30T11:57:12;3.90;;;3.30;;
67074;SDS011;53990;50.334;18.640;2023-09-30T11:59:43;3.20;;;2.70;;
67074;SDS011;53990;50.334;18.640;2023-09-30T12:02:12;3.10;;;2.80;;
67074;SDS011;53990;50.334;18.640;2023-09-30T12:04:45;3.70;;;3.10;;
67074;SDS011;53990;50.334;18.640;2023-09-30T12:07:13;3.10;;;2.80;;
67074;SDS011;53990;50.334;18.640;2023-09-30T12:09:41;3.50;;;2.90;;
67074;SDS011;53990;50.334;18.640;2023-09-30T12:12:08;3.90;;;2.90;;
67074;SDS011;53990;50.334;18.640;2023-09-30T12:14:41;3.50;;;3.20;;
67074;SDS011;53990;50.334;18.640;2023-09-30T12:17:08;4.00;;;3.60;;
67074;SDS011;53990;50.334;18.640;2023-09-30T12:19:38;4.40;;;2.70;;
67074;SDS011;53990;50.334;18.640;2023-09-30T12:22:05;3.60;;;3.20;;
67074;SDS011;53990;50.334;18.640;2023-09-30T12:24:33;2.70;;;2.50;;
67074;SDS011;53990;50.334;18.640;2023-09-30T12:26:59;3.00;;;2.50;;
67074;SDS011;53990;50.334;18.640;2023-09-30T12:29:26;2.80;;;2.50;;
67074;SDS011;53990;50.334;18.640;2023-09-30T12:31:53;2.80;;;2.50;;
67074;SDS011;53990;50.334;18.640;2023-09-30T12:34:20;3.30;;;2.40;;
67074;SDS011;53990;50.334;18.640;2023-09-30T12:36:50;4.00;;;2.50;;
67074;SDS011;53990;50.334;18.640;2023-09-30T12:39:17;2.50;;;2.30;;
67074;SDS011;53990;50.334;18.640;2023-09-30T12:41:50;3.20;;;2.30;;
67074;SDS011;53990;50.334;18.640;2023-09-30T12:44:18;2.10;;;1.80;;
67074;SDS011;53990;50.334;18.640;2023-09-30T12:46:46;2.60;;;2.00;;
67074;SDS011;53990;50.334;18.640;2023-09-30T12:49:13;2.40;;;1.90;;
67074;SDS011;53990;50.334;18.640;2023-09-30T12:51:40;2.10;;;1.50;;
67074;SDS011;53990;50.334;18.640;2023-09-30T12:54:07;1.90;;;1.50;;
67074;SDS011;53990;50.334;18.640;2023-09-30T12:56:36;2.80;;;1.50;;
67074;SDS011;53990;50.334;18.640;2023-09-30T12:59:03;2.30;;;1.50;;
67074;SDS011;53990;50.334;18.640;2023-09-30T13:01:30;2.50;;;1.90;;
67074;SDS011;53990;50.334;18.640;2023-09-30T13:04:00;2.00;;;1.40;;
67074;SDS011;53990;50.334;18.640;2023-09-30T13:06:28;1.40;;;1.20;;
67074;SDS011;53990;50.334;18.640;2023-09-30T13:08:55;1.20;;;1.00;;
67074;SDS011;53990;50.334;18.640;2023-09-30T13:11:23;1.10;;;1.00;;
67074;SDS011;53990;50.334;18.640;2023-09-30T13:13:51;1.30;;;0.90;;
67074;SDS011;53990;50.334;18.640;2023-09-30T13:16:19;1.10;;;0.90;;
67074;SDS011;53990;50.334;18.640;2023-09-30T13:18:45;1.20;;;0.80;;
67074;SDS011;53990;50.334;18.640;2023-09-30T13:21:12;1.00;;;0.80;;
67074;SDS011;53990;50.334;18.640;2023-09-30T13:23:40;1.10;;;0.80;;
67074;SDS011;53990;50.334;18.640;2023-09-30T13:26:07;0.60;;;0.60;;
67074;SDS011;53990;50.334;18.640;2023-09-30T13:28:34;0.40;;;0.40;;
67074;SDS011;53990;50.334;18.640;2023-09-30T13:31:01;0.80;;;0.50;;
67074;SDS011;53990;50.334;18.640;2023-09-30T13:33:29;1.50;;;0.60;;
67074;SDS011;53990;50.334;18.640;2023-09-30T13:35:56;0.70;;;0.70;;
67074;SDS011;53990;50.334;18.640;2023-09-30T13:38:23;0.90;;;0.80;;
67074;SDS011;53990;50.334;18.640;2023-09-30T13:40:50;1.20;;;0.70;;
67074;SDS011;53990;50.334;18.640;2023-09-30T13:43:17;0.80;;;0.60;;
67074;SDS011;53990;50.334;18.640;2023-09-30T13:45:44;1.20;;;0.70;;
67074;SDS011;53990;50.334;18.640;2023-09-30T13:48:11;1.00;;;0.70;;
67074;SDS011;53990;50.334;18.640;2023-09-30T13:50:38;2.70;;;1.20;;
67074;SDS011;53990;50.334;18.640;2023-09-30T13:53:06;1.50;;;0.90;;
67074;SDS011;53990;50.334;18.640;2023-09-30T13:55:37;1.30;;;0.90;;
67074;SDS011;53990;50.334;18.640;2023-09-30T13:58:04;2.30;;;1.20;;
67074;SDS011;53990;50.334;18.640;2023-09-30T14:00:31;1.80;;;1.40;;
67074;SDS011;53990;50.334;18.640;2023-09-30T14:03:05;1.50;;;1.20;;
67074;SDS011;53990;50.334;18.640;2023-09-30T14:08:04;3.30;;;1.40;;
67074;SDS011;53990;50.334;18.640;2023-09-30T14:10:35;1.70;;;1.40;;
67074;SDS011;53990;50.334;18.640;2023-09-30T14:13:03;2.20;;;1.40;;
67074;SDS011;53990;50.334;18.640;2023-09-30T14:15:30;2.10;;;1.50;;
67074;SDS011;53990;50.334;18.640;2023-09-30T14:18:01;2.20;;;1.50;;
67074;SDS011;53990;50.334;18.640;2023-09-30T14:20:32;2.10;;;1.50;;
67074;SDS011;53990;50.334;18.640;2023-09-30T14:23:00;2.10;;;1.60;;
67074;SDS011;53990;50.334;18.640;2023-09-30T14:25:29;1.70;;;1.30;;
67074;SDS011;53990;50.334;18.640;2023-09-30T14:27:56;2.40;;;1.60;;
67074;SDS011;53990;50.334;18.640;2023-09-30T14:30:26;2.40;;;1.40;;
67074;SDS011;53990;50.334;18.640;2023-09-30T14:32:53;3.70;;;1.80;;
67074;SDS011;53990;50.334;18.640;2023-09-30T14:35:21;3.20;;;1.60;;
67074;SDS011;53990;50.334;18.640;2023-09-30T14:37:48;2.40;;;1.60;;
67074;SDS011;53990;50.334;18.640;2023-09-30T14:40:15;2.60;;;1.50;;
67074;SDS011;53990;50.334;18.640;2023-09-30T14:42:42;2.40;;;1.50;;
67074;SDS011;53990;50.334;18.640;2023-09-30T14:45:10;2.00;;;1.60;;
67074;SDS011;53990;50.334;18.640;2023-09-30T14:47:38;2.00;;;1.40;;
67074;SDS011;53990;50.334;18.640;2023-09-30T14:50:08;2.50;;;1.50;;
67074;SDS011;53990;50.334;18.640;2023-09-30T14:52:37;4.30;;;2.30;;
67074;SDS011;53990;50.334;18.640;2023-09-30T14:55:04;2.60;;;1.50;;
67074;SDS011;53990;50.334;18.640;2023-09-30T14:57:32;1.80;;;1.40;;
67074;SDS011;53990;50.334;18.640;2023-09-30T14:59:58;2.20;;;1.30;;
67074;SDS011;53990;50.334;18.640;2023-09-30T15:02:25;2.30;;;1.50;;
67074;SDS011;53990;50.334;18.640;2023-09-30T15:04:52;1.90;;;1.30;;